sensor_id;sensor_type;location;lat;lon;timestamp;P1;durP1;ratioP1;P2;durP2;ratioP2
60917;SDS011;46792;38.854;-9.384;2023-05-18T00:01:01;21.48;;;7.45;;
60917;SDS011;46792;38.854;-9.384;2023-05-18T00:03:02;24.85;;;7.57;;
60917;SDS011;46792;38.854;-9.384;2023-05-18T00:05:21;21.23;;;5.13;;
60917;SDS011;46792;38.854;-9.384;2023-05-18T00:07:40;27.00;;;6.93;;
60917;SDS011;46792;38.854;-9.384;2023-05-18T00:12:20;21.23;;;5.50;;
60917;SDS011;46792;38.854;-9.384;2023-05-18T00:14:20;22.05;;;5.40;;
60917;SDS011;46792;38.854;-9.384;2023-05-18T00:16:21;30.63;;;5.82;;
60917;SDS011;46792;38.854;-9.384;2023-05-18T00:18:40;22.73;;;5.50;;
60917;SDS011;46792;38.854;-9.384;2023-05-18T00:20:41;17.45;;;5.18;;
60917;SDS011;46792;38.854;-9.384;2023-05-18T00:25:22;22.58;;;5.55;;
60917;SDS011;46792;38.854;-9.384;2023-05-18T00:27:23;28.02;;;5.63;;
60917;SDS011;46792;38.854;-9.384;2023-05-18T00:29:42;21.65;;;5.00;;
60917;SDS011;46792;38.854;-9.384;2023-05-18T00:32:01;17.65;;;5.05;;
60917;SDS011;46792;38.854;-9.384;2023-05-18T00:34:02;21.45;;;5.97;;
60917;SDS011;46792;38.854;-9.384;2023-05-18T00:36:03;16.83;;;6.07;;
60917;SDS011;46792;38.854;-9.384;2023-05-18T00:38:04;26.95;;;4.50;;
60917;SDS011;46792;38.854;-9.384;2023-05-18T00:40:04;22.52;;;4.38;;
60917;SDS011;46792;38.854;-9.384;2023-05-18T00:42:24;26.10;;;4.80;;
60917;SDS011;46792;38.854;-9.384;2023-05-18T00:44:24;11.68;;;4.65;;
60917;SDS011;46792;38.854;-9.384;2023-05-18T00:46:26;20.67;;;4.82;;
60917;SDS011;46792;38.854;-9.384;2023-05-18T00:48:27;13.13;;;4.75;;
60917;SDS011;46792;38.854;-9.384;2023-05-18T00:50:28;18.13;;;4.78;;
60917;SDS011;46792;38.854;-9.384;2023-05-18T00:52:34;22.58;;;5.45;;
60917;SDS011;46792;38.854;-9.384;2023-05-18T00:54:54;20.13;;;4.82;;
60917;SDS011;46792;38.854;-9.384;2023-05-18T00:57:15;23.75;;;4.65;;
60917;SDS011;46792;38.854;-9.384;2023-05-18T00:59:18;13.27;;;4.75;;
60917;SDS011;46792;38.854;-9.384;2023-05-18T01:01:37;17.70;;;4.72;;
60917;SDS011;46792;38.854;-9.384;2023-05-18T01:03:58;14.85;;;4.15;;
60917;SDS011;46792;38.854;-9.384;2023-05-18T01:06:01;18.20;;;5.10;;
60917;SDS011;46792;38.854;-9.384;2023-05-18T01:08:04;22.65;;;6.00;;
60917;SDS011;46792;38.854;-9.384;2023-05-18T01:10:05;21.40;;;5.70;;
60917;SDS011;46792;38.854;-9.384;2023-05-18T01:17:13;18.55;;;4.93;;
60917;SDS011;46792;38.854;-9.384;2023-05-18T01:27:21;19.40;;;4.93;;
60917;SDS011;46792;38.854;-9.384;2023-05-18T01:29:25;17.42;;;4.68;;
60917;SDS011;46792;38.854;-9.384;2023-05-18T01:31:28;18.92;;;4.63;;
60917;SDS011;46792;38.854;-9.384;2023-05-18T01:33:32;22.42;;;5.47;;
60917;SDS011;46792;38.854;-9.384;2023-05-18T01:35:33;19.88;;;5.43;;
60917;SDS011;46792;38.854;-9.384;2023-05-18T01:37:39;17.92;;;5.15;;
60917;SDS011;46792;38.854;-9.384;2023-05-18T01:39:40;20.15;;;5.40;;
60917;SDS011;46792;38.854;-9.384;2023-05-18T01:41:45;15.23;;;5.07;;
60917;SDS011;46792;38.854;-9.384;2023-05-18T01:48:21;11.85;;;5.32;;
60917;SDS011;46792;38.854;-9.384;2023-05-18T01:50:34;17.63;;;4.63;;
60917;SDS011;46792;38.854;-9.384;2023-05-18T01:52:43;13.50;;;4.20;;
60917;SDS011;46792;38.854;-9.384;2023-05-18T01:54:53;27.33;;;5.68;;
60917;SDS011;46792;38.854;-9.384;2023-05-18T01:58:57;19.33;;;5.55;;
60917;SDS011;46792;38.854;-9.384;2023-05-18T02:00:59;19.00;;;4.82;;
60917;SDS011;46792;38.854;-9.384;2023-05-18T02:03:00;16.90;;;5.03;;
60917;SDS011;46792;38.854;-9.384;2023-05-18T02:05:19;22.73;;;5.10;;
60917;SDS011;46792;38.854;-9.384;2023-05-18T02:07:39;23.00;;;6.05;;
60917;SDS011;46792;38.854;-9.384;2023-05-18T02:09:41;33.00;;;5.07;;
60917;SDS011;46792;38.854;-9.384;2023-05-18T02:11:43;12.95;;;4.40;;
60917;SDS011;46792;38.854;-9.384;2023-05-18T02:13:46;25.48;;;5.57;;
60917;SDS011;46792;38.854;-9.384;2023-05-18T02:15:46;17.65;;;5.13;;
60917;SDS011;46792;38.854;-9.384;2023-05-18T02:17:47;20.65;;;6.53;;
60917;SDS011;46792;38.854;-9.384;2023-05-18T02:19:48;18.48;;;5.18;;
60917;SDS011;46792;38.854;-9.384;2023-05-18T02:21:48;14.35;;;4.95;;
60917;SDS011;46792;38.854;-9.384;2023-05-18T02:23:49;16.02;;;5.03;;
60917;SDS011;46792;38.854;-9.384;2023-05-18T02:26:08;11.07;;;5.00;;
60917;SDS011;46792;38.854;-9.384;2023-05-18T02:28:09;22.20;;;5.47;;
60917;SDS011;46792;38.854;-9.384;2023-05-18T02:30:11;23.45;;;6.38;;
60917;SDS011;46792;38.854;-9.384;2023-05-18T02:32:12;21.13;;;4.65;;
60917;SDS011;46792;38.854;-9.384;2023-05-18T02:34:32;10.93;;;4.28;;
60917;SDS011;46792;38.854;-9.384;2023-05-18T02:36:53;17.20;;;4.18;;
60917;SDS011;46792;38.854;-9.384;2023-05-18T02:38:56;29.37;;;5.30;;
60917;SDS011;46792;38.854;-9.384;2023-05-18T02:40:57;25.17;;;5.57;;
60917;SDS011;46792;38.854;-9.384;2023-05-18T02:42:58;16.40;;;4.80;;
60917;SDS011;46792;38.854;-9.384;2023-05-18T02:44:58;24.40;;;4.72;;
60917;SDS011;46792;38.854;-9.384;2023-05-18T02:46:59;14.82;;;4.90;;
60917;SDS011;46792;38.854;-9.384;2023-05-18T02:49:19;16.08;;;5.25;;
60917;SDS011;46792;38.854;-9.384;2023-05-18T02:51:20;26.95;;;6.38;;
60917;SDS011;46792;38.854;-9.384;2023-05-18T02:53:22;11.27;;;5.15;;
60917;SDS011;46792;38.854;-9.384;2023-05-18T02:55:23;21.10;;;4.57;;
60917;SDS011;46792;38.854;-9.384;2023-05-18T02:57:40;13.10;;;5.15;;
60917;SDS011;46792;38.854;-9.384;2023-05-18T02:59:46;14.98;;;4.78;;
60917;SDS011;46792;38.854;-9.384;2023-05-18T03:01:46;18.73;;;4.78;;
60917;SDS011;46792;38.854;-9.384;2023-05-18T03:03:47;11.35;;;4.65;;
60917;SDS011;46792;38.854;-9.384;2023-05-18T03:06:07;16.17;;;4.35;;
60917;SDS011;46792;38.854;-9.384;2023-05-18T03:08:08;18.42;;;4.95;;
60917;SDS011;46792;38.854;-9.384;2023-05-18T03:10:09;16.10;;;5.50;;
60917;SDS011;46792;38.854;-9.384;2023-05-18T03:12:10;15.07;;;4.97;;
60917;SDS011;46792;38.854;-9.384;2023-05-18T03:14:11;13.25;;;4.22;;
60917;SDS011;46792;38.854;-9.384;2023-05-18T03:16:11;13.55;;;5.07;;
60917;SDS011;46792;38.854;-9.384;2023-05-18T03:18:12;21.40;;;6.13;;
60917;SDS011;46792;38.854;-9.384;2023-05-18T03:20:13;26.65;;;6.05;;
60917;SDS011;46792;38.854;-9.384;2023-05-18T03:22:14;15.02;;;5.43;;
60917;SDS011;46792;38.854;-9.384;2023-05-18T03:24:15;8.98;;;4.22;;
60917;SDS011;46792;38.854;-9.384;2023-05-18T03:28:26;11.57;;;5.20;;
60917;SDS011;46792;38.854;-9.384;2023-05-18T03:30:27;14.30;;;4.35;;
60917;SDS011;46792;38.854;-9.384;2023-05-18T03:32:28;11.27;;;4.40;;
60917;SDS011;46792;38.854;-9.384;2023-05-18T03:34:32;8.57;;;4.28;;
60917;SDS011;46792;38.854;-9.384;2023-05-18T03:36:33;9.25;;;3.97;;
60917;SDS011;46792;38.854;-9.384;2023-05-18T03:38:34;9.70;;;4.78;;
60917;SDS011;46792;38.854;-9.384;2023-05-18T03:40:41;8.02;;;4.22;;
60917;SDS011;46792;38.854;-9.384;2023-05-18T03:42:41;12.85;;;4.95;;
60917;SDS011;46792;38.854;-9.384;2023-05-18T03:44:42;10.25;;;4.43;;
60917;SDS011;46792;38.854;-9.384;2023-05-18T03:46:43;8.73;;;5.20;;
60917;SDS011;46792;38.854;-9.384;2023-05-18T03:48:44;8.02;;;4.78;;
60917;SDS011;46792;38.854;-9.384;2023-05-18T03:50:44;10.00;;;4.55;;
60917;SDS011;46792;38.854;-9.384;2023-05-18T03:52:45;12.48;;;5.05;;
60917;SDS011;46792;38.854;-9.384;2023-05-18T03:54:49;11.10;;;4.32;;
60917;SDS011;46792;38.854;-9.384;2023-05-18T03:58:51;10.27;;;4.68;;
60917;SDS011;46792;38.854;-9.384;2023-05-18T04:00:52;12.55;;;4.88;;
60917;SDS011;46792;38.854;-9.384;2023-05-18T04:02:53;9.88;;;5.20;;
60917;SDS011;46792;38.854;-9.384;2023-05-18T04:04:57;8.30;;;5.07;;
60917;SDS011;46792;38.854;-9.384;2023-05-18T04:07:00;7.97;;;4.45;;
60917;SDS011;46792;38.854;-9.384;2023-05-18T04:09:01;8.50;;;4.40;;
60917;SDS011;46792;38.854;-9.384;2023-05-18T04:11:03;8.73;;;5.40;;
60917;SDS011;46792;38.854;-9.384;2023-05-18T04:13:05;12.00;;;4.57;;
60917;SDS011;46792;38.854;-9.384;2023-05-18T04:15:06;6.57;;;4.50;;
60917;SDS011;46792;38.854;-9.384;2023-05-18T04:17:07;12.13;;;4.47;;
60917;SDS011;46792;38.854;-9.384;2023-05-18T04:19:09;10.38;;;5.22;;
60917;SDS011;46792;38.854;-9.384;2023-05-18T04:21:10;6.40;;;4.05;;
60917;SDS011;46792;38.854;-9.384;2023-05-18T04:23:11;11.63;;;4.90;;
60917;SDS011;46792;38.854;-9.384;2023-05-18T04:25:13;8.98;;;4.18;;
60917;SDS011;46792;38.854;-9.384;2023-05-18T04:27:15;7.38;;;4.88;;
60917;SDS011;46792;38.854;-9.384;2023-05-18T04:29:15;7.20;;;4.45;;
60917;SDS011;46792;38.854;-9.384;2023-05-18T04:31:16;11.15;;;4.80;;
60917;SDS011;46792;38.854;-9.384;2023-05-18T04:33:17;16.23;;;4.53;;
60917;SDS011;46792;38.854;-9.384;2023-05-18T04:35:19;8.32;;;4.45;;
60917;SDS011;46792;38.854;-9.384;2023-05-18T04:37:20;13.90;;;4.35;;
60917;SDS011;46792;38.854;-9.384;2023-05-18T04:39:21;10.98;;;4.63;;
60917;SDS011;46792;38.854;-9.384;2023-05-18T04:41:25;8.52;;;4.78;;
60917;SDS011;46792;38.854;-9.384;2023-05-18T04:43:25;6.55;;;4.60;;
60917;SDS011;46792;38.854;-9.384;2023-05-18T04:45:27;10.68;;;5.00;;
60917;SDS011;46792;38.854;-9.384;2023-05-18T04:49:51;12.27;;;4.10;;
60917;SDS011;46792;38.854;-9.384;2023-05-18T04:52:10;8.55;;;4.03;;
60917;SDS011;46792;38.854;-9.384;2023-05-18T04:54:11;7.82;;;4.63;;
60917;SDS011;46792;38.854;-9.384;2023-05-18T04:56:12;7.85;;;4.60;;
60917;SDS011;46792;38.854;-9.384;2023-05-18T04:58:32;11.82;;;4.40;;
60917;SDS011;46792;38.854;-9.384;2023-05-18T05:00:34;8.40;;;4.50;;
60917;SDS011;46792;38.854;-9.384;2023-05-18T05:02:35;7.10;;;4.43;;
60917;SDS011;46792;38.854;-9.384;2023-05-18T05:04:37;9.02;;;4.85;;
60917;SDS011;46792;38.854;-9.384;2023-05-18T05:06:38;7.18;;;4.13;;
60917;SDS011;46792;38.854;-9.384;2023-05-18T05:08:39;7.57;;;4.63;;
60917;SDS011;46792;38.854;-9.384;2023-05-18T05:10:39;7.82;;;4.15;;
60917;SDS011;46792;38.854;-9.384;2023-05-18T05:12:40;10.75;;;4.95;;
60917;SDS011;46792;38.854;-9.384;2023-05-18T05:14:41;7.30;;;4.10;;
60917;SDS011;46792;38.854;-9.384;2023-05-18T05:17:00;11.95;;;4.68;;
60917;SDS011;46792;38.854;-9.384;2023-05-18T05:19:18;9.38;;;4.20;;
60917;SDS011;46792;38.854;-9.384;2023-05-18T05:21:19;7.75;;;4.68;;
60917;SDS011;46792;38.854;-9.384;2023-05-18T05:23:20;7.18;;;4.50;;
60917;SDS011;46792;38.854;-9.384;2023-05-18T05:25:21;8.48;;;4.47;;
60917;SDS011;46792;38.854;-9.384;2023-05-18T05:27:40;12.73;;;4.90;;
60917;SDS011;46792;38.854;-9.384;2023-05-18T05:35:17;12.85;;;4.45;;
60917;SDS011;46792;38.854;-9.384;2023-05-18T05:37:19;15.68;;;5.15;;
60917;SDS011;46792;38.854;-9.384;2023-05-18T05:39:21;8.63;;;5.13;;
60917;SDS011;46792;38.854;-9.384;2023-05-18T05:43:42;12.68;;;5.45;;
60917;SDS011;46792;38.854;-9.384;2023-05-18T05:46:01;10.00;;;5.00;;
60917;SDS011;46792;38.854;-9.384;2023-05-18T05:48:20;13.65;;;4.38;;
60917;SDS011;46792;38.854;-9.384;2023-05-18T05:50:21;6.50;;;4.50;;
60917;SDS011;46792;38.854;-9.384;2023-05-18T05:57:40;11.57;;;5.10;;
60917;SDS011;46792;38.854;-9.384;2023-05-18T05:59:42;6.47;;;4.05;;
60917;SDS011;46792;38.854;-9.384;2023-05-18T06:01:43;18.38;;;5.25;;
60917;SDS011;46792;38.854;-9.384;2023-05-18T06:06:22;6.40;;;4.18;;
60917;SDS011;46792;38.854;-9.384;2023-05-18T06:08:22;12.25;;;4.93;;
60917;SDS011;46792;38.854;-9.384;2023-05-18T06:10:24;10.00;;;4.97;;
60917;SDS011;46792;38.854;-9.384;2023-05-18T06:12:26;10.38;;;4.40;;
60917;SDS011;46792;38.854;-9.384;2023-05-18T06:14:45;9.52;;;4.50;;
60917;SDS011;46792;38.854;-9.384;2023-05-18T06:17:05;7.28;;;4.28;;
60917;SDS011;46792;38.854;-9.384;2023-05-18T06:19:06;10.55;;;4.40;;
60917;SDS011;46792;38.854;-9.384;2023-05-18T06:21:06;6.55;;;4.03;;
60917;SDS011;46792;38.854;-9.384;2023-05-18T06:23:07;8.55;;;5.13;;
60917;SDS011;46792;38.854;-9.384;2023-05-18T06:25:27;6.25;;;3.90;;
60917;SDS011;46792;38.854;-9.384;2023-05-18T06:27:40;13.93;;;4.38;;
60917;SDS011;46792;38.854;-9.384;2023-05-18T06:29:57;9.13;;;4.38;;
60917;SDS011;46792;38.854;-9.384;2023-05-18T06:32:22;9.00;;;4.45;;
60917;SDS011;46792;38.854;-9.384;2023-05-18T06:34:27;8.93;;;4.88;;
60917;SDS011;46792;38.854;-9.384;2023-05-18T06:36:27;11.23;;;4.45;;
60917;SDS011;46792;38.854;-9.384;2023-05-18T06:38:28;13.05;;;5.07;;
60917;SDS011;46792;38.854;-9.384;2023-05-18T06:40:32;22.00;;;5.37;;
60917;SDS011;46792;38.854;-9.384;2023-05-18T06:42:32;8.02;;;5.03;;
60917;SDS011;46792;38.854;-9.384;2023-05-18T06:44:46;20.45;;;4.82;;
60917;SDS011;46792;38.854;-9.384;2023-05-18T06:46:52;13.00;;;6.00;;
60917;SDS011;46792;38.854;-9.384;2023-05-18T06:48:57;14.65;;;5.70;;
60917;SDS011;46792;38.854;-9.384;2023-05-18T06:50:58;9.63;;;5.32;;
60917;SDS011;46792;38.854;-9.384;2023-05-18T06:53:17;10.38;;;5.53;;
60917;SDS011;46792;38.854;-9.384;2023-05-18T06:55:18;9.48;;;4.80;;
60917;SDS011;46792;38.854;-9.384;2023-05-18T06:57:19;11.98;;;5.25;;
60917;SDS011;46792;38.854;-9.384;2023-05-18T06:59:19;7.13;;;4.78;;
60917;SDS011;46792;38.854;-9.384;2023-05-18T07:01:22;10.40;;;5.47;;
60917;SDS011;46792;38.854;-9.384;2023-05-18T07:03:23;7.30;;;4.80;;
60917;SDS011;46792;38.854;-9.384;2023-05-18T07:05:42;6.07;;;4.40;;
60917;SDS011;46792;38.854;-9.384;2023-05-18T07:07:43;9.63;;;4.82;;
60917;SDS011;46792;38.854;-9.384;2023-05-18T07:09:44;12.52;;;5.60;;
60917;SDS011;46792;38.854;-9.384;2023-05-18T07:11:45;11.98;;;5.00;;
60917;SDS011;46792;38.854;-9.384;2023-05-18T07:13:46;15.57;;;4.72;;
60917;SDS011;46792;38.854;-9.384;2023-05-18T07:15:46;7.35;;;4.13;;
60917;SDS011;46792;38.854;-9.384;2023-05-18T07:17:47;11.95;;;4.50;;
60917;SDS011;46792;38.854;-9.384;2023-05-18T07:19:47;8.77;;;4.93;;
60917;SDS011;46792;38.854;-9.384;2023-05-18T07:21:48;8.77;;;4.35;;
60917;SDS011;46792;38.854;-9.384;2023-05-18T07:23:49;13.77;;;5.00;;
60917;SDS011;46792;38.854;-9.384;2023-05-18T07:25:51;20.60;;;5.03;;
60917;SDS011;46792;38.854;-9.384;2023-05-18T07:27:52;6.13;;;4.57;;
60917;SDS011;46792;38.854;-9.384;2023-05-18T07:29:55;14.18;;;4.97;;
60917;SDS011;46792;38.854;-9.384;2023-05-18T07:31:55;15.07;;;4.43;;
60917;SDS011;46792;38.854;-9.384;2023-05-18T07:33:56;8.63;;;4.43;;
60917;SDS011;46792;38.854;-9.384;2023-05-18T07:35:56;9.20;;;4.85;;
60917;SDS011;46792;38.854;-9.384;2023-05-18T07:37:57;8.10;;;5.63;;
60917;SDS011;46792;38.854;-9.384;2023-05-18T07:39:58;7.05;;;4.57;;
60917;SDS011;46792;38.854;-9.384;2023-05-18T07:41:58;14.77;;;4.53;;
60917;SDS011;46792;38.854;-9.384;2023-05-18T07:46:42;17.73;;;5.70;;
60917;SDS011;46792;38.854;-9.384;2023-05-18T07:48:43;10.88;;;3.80;;
60917;SDS011;46792;38.854;-9.384;2023-05-18T07:50:47;21.02;;;6.20;;
60917;SDS011;46792;38.854;-9.384;2023-05-18T07:52:47;11.23;;;5.07;;
60917;SDS011;46792;38.854;-9.384;2023-05-18T07:54:48;10.32;;;4.70;;
60917;SDS011;46792;38.854;-9.384;2023-05-18T07:56:48;8.50;;;4.57;;
60917;SDS011;46792;38.854;-9.384;2023-05-18T07:58:49;14.50;;;4.43;;
60917;SDS011;46792;38.854;-9.384;2023-05-18T08:00:50;10.70;;;4.68;;
60917;SDS011;46792;38.854;-9.384;2023-05-18T08:02:50;8.18;;;4.90;;
60917;SDS011;46792;38.854;-9.384;2023-05-18T08:04:51;11.48;;;4.45;;
60917;SDS011;46792;38.854;-9.384;2023-05-18T08:06:52;11.45;;;5.03;;
60917;SDS011;46792;38.854;-9.384;2023-05-18T08:08:54;6.00;;;4.60;;
60917;SDS011;46792;38.854;-9.384;2023-05-18T08:11:04;9.93;;;4.50;;
60917;SDS011;46792;38.854;-9.384;2023-05-18T08:13:05;6.57;;;4.78;;
60917;SDS011;46792;38.854;-9.384;2023-05-18T08:15:06;9.93;;;4.55;;
60917;SDS011;46792;38.854;-9.384;2023-05-18T08:17:07;10.38;;;4.97;;
60917;SDS011;46792;38.854;-9.384;2023-05-18T08:19:13;13.45;;;5.18;;
60917;SDS011;46792;38.854;-9.384;2023-05-18T08:21:14;11.32;;;4.85;;
60917;SDS011;46792;38.854;-9.384;2023-05-18T08:23:15;9.85;;;5.22;;
60917;SDS011;46792;38.854;-9.384;2023-05-18T08:25:16;15.00;;;4.90;;
60917;SDS011;46792;38.854;-9.384;2023-05-18T08:27:22;14.27;;;6.30;;
60917;SDS011;46792;38.854;-9.384;2023-05-18T08:29:23;9.00;;;5.25;;
60917;SDS011;46792;38.854;-9.384;2023-05-18T08:31:23;9.88;;;5.20;;
60917;SDS011;46792;38.854;-9.384;2023-05-18T08:33:24;6.72;;;4.82;;
60917;SDS011;46792;38.854;-9.384;2023-05-18T08:35:43;16.60;;;5.15;;
60917;SDS011;46792;38.854;-9.384;2023-05-18T08:37:44;10.15;;;4.90;;
60917;SDS011;46792;38.854;-9.384;2023-05-18T08:39:54;19.30;;;5.00;;
60917;SDS011;46792;38.854;-9.384;2023-05-18T08:44:21;7.25;;;4.15;;
60917;SDS011;46792;38.854;-9.384;2023-05-18T08:46:30;10.70;;;5.07;;
60917;SDS011;46792;38.854;-9.384;2023-05-18T08:51:47;6.78;;;4.63;;
60917;SDS011;46792;38.854;-9.384;2023-05-18T08:53:55;5.65;;;4.47;;
60917;SDS011;46792;38.854;-9.384;2023-05-18T08:55:57;9.30;;;4.60;;
60917;SDS011;46792;38.854;-9.384;2023-05-18T09:00:56;9.27;;;5.30;;
60917;SDS011;46792;38.854;-9.384;2023-05-18T09:02:59;7.07;;;4.37;;
60917;SDS011;46792;38.854;-9.384;2023-05-18T09:05:00;11.18;;;5.10;;
60917;SDS011;46792;38.854;-9.384;2023-05-18T09:07:02;13.98;;;5.78;;
60917;SDS011;46792;38.854;-9.384;2023-05-18T09:09:04;11.15;;;4.85;;
60917;SDS011;46792;38.854;-9.384;2023-05-18T09:11:24;8.65;;;4.88;;
60917;SDS011;46792;38.854;-9.384;2023-05-18T09:19:02;9.27;;;5.57;;
60917;SDS011;46792;38.854;-9.384;2023-05-18T09:21:02;16.53;;;5.53;;
60917;SDS011;46792;38.854;-9.384;2023-05-18T09:23:03;9.45;;;5.15;;
60917;SDS011;46792;38.854;-9.384;2023-05-18T09:25:07;7.18;;;4.97;;
60917;SDS011;46792;38.854;-9.384;2023-05-18T09:27:09;15.85;;;5.57;;
60917;SDS011;46792;38.854;-9.384;2023-05-18T09:29:14;10.50;;;5.40;;
60917;SDS011;46792;38.854;-9.384;2023-05-18T09:31:20;12.93;;;4.80;;
60917;SDS011;46792;38.854;-9.384;2023-05-18T09:33:23;25.53;;;5.57;;
60917;SDS011;46792;38.854;-9.384;2023-05-18T09:35:24;6.93;;;4.68;;
60917;SDS011;46792;38.854;-9.384;2023-05-18T09:37:24;15.65;;;5.05;;
60917;SDS011;46792;38.854;-9.384;2023-05-18T09:39:26;7.40;;;4.78;;
60917;SDS011;46792;38.854;-9.384;2023-05-18T09:41:27;8.63;;;5.50;;
60917;SDS011;46792;38.854;-9.384;2023-05-18T09:43:28;12.75;;;4.95;;
60917;SDS011;46792;38.854;-9.384;2023-05-18T09:45:28;11.75;;;4.82;;
60917;SDS011;46792;38.854;-9.384;2023-05-18T09:47:29;7.75;;;5.18;;
60917;SDS011;46792;38.854;-9.384;2023-05-18T09:49:32;7.97;;;5.22;;
60917;SDS011;46792;38.854;-9.384;2023-05-18T09:51:36;6.25;;;5.00;;
60917;SDS011;46792;38.854;-9.384;2023-05-18T09:53:38;9.27;;;4.85;;
60917;SDS011;46792;38.854;-9.384;2023-05-18T09:55:46;11.93;;;5.40;;
60917;SDS011;46792;38.854;-9.384;2023-05-18T09:57:48;12.35;;;5.63;;
60917;SDS011;46792;38.854;-9.384;2023-05-18T09:59:54;13.40;;;5.30;;
60917;SDS011;46792;38.854;-9.384;2023-05-18T10:06:25;11.27;;;4.65;;
60917;SDS011;46792;38.854;-9.384;2023-05-18T10:08:44;7.45;;;5.53;;
60917;SDS011;46792;38.854;-9.384;2023-05-18T10:10:46;9.25;;;5.40;;
60917;SDS011;46792;38.854;-9.384;2023-05-18T10:12:51;11.60;;;5.57;;
60917;SDS011;46792;38.854;-9.384;2023-05-18T10:14:53;9.13;;;5.55;;
60917;SDS011;46792;38.854;-9.384;2023-05-18T10:16:53;9.20;;;4.95;;
60917;SDS011;46792;38.854;-9.384;2023-05-18T10:18:54;11.13;;;5.63;;
60917;SDS011;46792;38.854;-9.384;2023-05-18T10:20:57;11.98;;;5.88;;
60917;SDS011;46792;38.854;-9.384;2023-05-18T10:22:59;13.45;;;5.55;;
60917;SDS011;46792;38.854;-9.384;2023-05-18T10:25:04;8.60;;;5.53;;
60917;SDS011;46792;38.854;-9.384;2023-05-18T10:27:10;9.27;;;6.30;;
60917;SDS011;46792;38.854;-9.384;2023-05-18T10:29:35;11.23;;;6.40;;
60917;SDS011;46792;38.854;-9.384;2023-05-18T10:31:55;9.60;;;6.10;;
60917;SDS011;46792;38.854;-9.384;2023-05-18T10:34:24;10.43;;;5.10;;
60917;SDS011;46792;38.854;-9.384;2023-05-18T10:36:24;12.20;;;5.88;;
60917;SDS011;46792;38.854;-9.384;2023-05-18T10:38:29;11.85;;;5.93;;
60917;SDS011;46792;38.854;-9.384;2023-05-18T10:40:30;14.48;;;6.43;;
60917;SDS011;46792;38.854;-9.384;2023-05-18T10:42:33;11.43;;;5.35;;
60917;SDS011;46792;38.854;-9.384;2023-05-18T10:44:34;8.85;;;5.50;;
60917;SDS011;46792;38.854;-9.384;2023-05-18T10:46:36;16.30;;;6.50;;
60917;SDS011;46792;38.854;-9.384;2023-05-18T10:48:38;8.15;;;5.80;;
60917;SDS011;46792;38.854;-9.384;2023-05-18T10:50:41;13.43;;;6.20;;
60917;SDS011;46792;38.854;-9.384;2023-05-18T10:52:43;14.25;;;6.60;;
60917;SDS011;46792;38.854;-9.384;2023-05-18T10:54:46;9.35;;;6.00;;
60917;SDS011;46792;38.854;-9.384;2023-05-18T10:56:48;12.85;;;6.47;;
60917;SDS011;46792;38.854;-9.384;2023-05-18T10:58:51;11.10;;;6.65;;
60917;SDS011;46792;38.854;-9.384;2023-05-18T11:00:55;9.35;;;6.68;;
60917;SDS011;46792;38.854;-9.384;2023-05-18T11:02:58;20.05;;;7.30;;
60917;SDS011;46792;38.854;-9.384;2023-05-18T11:05:03;11.38;;;5.82;;
60917;SDS011;46792;38.854;-9.384;2023-05-18T11:07:09;24.77;;;7.22;;
60917;SDS011;46792;38.854;-9.384;2023-05-18T11:09:20;16.52;;;6.72;;
60917;SDS011;46792;38.854;-9.384;2023-05-18T11:11:23;12.48;;;6.80;;
60917;SDS011;46792;38.854;-9.384;2023-05-18T11:13:30;10.23;;;7.10;;
60917;SDS011;46792;38.854;-9.384;2023-05-18T11:18:14;15.45;;;6.93;;
60917;SDS011;46792;38.854;-9.384;2023-05-18T11:20:15;13.15;;;7.07;;
60917;SDS011;46792;38.854;-9.384;2023-05-18T11:22:16;9.90;;;7.00;;
60917;SDS011;46792;38.854;-9.384;2023-05-18T11:24:35;13.85;;;6.18;;
60917;SDS011;46792;38.854;-9.384;2023-05-18T11:29:15;15.65;;;6.15;;
60917;SDS011;46792;38.854;-9.384;2023-05-18T11:31:16;7.43;;;5.93;;
60917;SDS011;46792;38.854;-9.384;2023-05-18T11:33:21;10.23;;;5.07;;
60917;SDS011;46792;38.854;-9.384;2023-05-18T11:35:54;7.40;;;5.20;;
60917;SDS011;46792;38.854;-9.384;2023-05-18T11:38:05;9.80;;;4.57;;
60917;SDS011;46792;38.854;-9.384;2023-05-18T11:40:10;9.38;;;4.15;;
60917;SDS011;46792;38.854;-9.384;2023-05-18T11:42:12;12.05;;;4.57;;
60917;SDS011;46792;38.854;-9.384;2023-05-18T11:44:19;12.00;;;4.47;;
60917;SDS011;46792;38.854;-9.384;2023-05-18T11:46:21;14.27;;;5.15;;
60917;SDS011;46792;38.854;-9.384;2023-05-18T11:48:44;10.23;;;4.60;;
60917;SDS011;46792;38.854;-9.384;2023-05-18T11:51:03;9.15;;;4.68;;
60917;SDS011;46792;38.854;-9.384;2023-05-18T11:53:08;12.57;;;4.03;;
60917;SDS011;46792;38.854;-9.384;2023-05-18T11:58:12;8.90;;;4.53;;
60917;SDS011;46792;38.854;-9.384;2023-05-18T12:00:18;6.20;;;3.95;;
60917;SDS011;46792;38.854;-9.384;2023-05-18T12:02:20;7.43;;;4.38;;
60917;SDS011;46792;38.854;-9.384;2023-05-18T12:04:24;10.18;;;4.47;;
60917;SDS011;46792;38.854;-9.384;2023-05-18T12:06:26;9.18;;;4.50;;
60917;SDS011;46792;38.854;-9.384;2023-05-18T12:08:27;9.80;;;4.45;;
60917;SDS011;46792;38.854;-9.384;2023-05-18T12:10:28;15.80;;;4.68;;
60917;SDS011;46792;38.854;-9.384;2023-05-18T12:12:29;14.60;;;4.88;;
60917;SDS011;46792;38.854;-9.384;2023-05-18T12:14:30;25.95;;;5.85;;
60917;SDS011;46792;38.854;-9.384;2023-05-18T12:16:35;18.15;;;4.93;;
60917;SDS011;46792;38.854;-9.384;2023-05-18T12:18:37;12.10;;;4.18;;
60917;SDS011;46792;38.854;-9.384;2023-05-18T12:20:38;8.23;;;4.53;;
60917;SDS011;46792;38.854;-9.384;2023-05-18T12:24:50;25.42;;;4.85;;
60917;SDS011;46792;38.854;-9.384;2023-05-18T12:31:49;13.82;;;4.55;;
60917;SDS011;46792;38.854;-9.384;2023-05-18T12:33:53;10.18;;;4.57;;
60917;SDS011;46792;38.854;-9.384;2023-05-18T12:35:54;9.07;;;4.40;;
60917;SDS011;46792;38.854;-9.384;2023-05-18T12:37:55;25.73;;;5.07;;
60917;SDS011;46792;38.854;-9.384;2023-05-18T12:40:00;15.80;;;4.15;;
60917;SDS011;46792;38.854;-9.384;2023-05-18T12:42:12;10.95;;;4.40;;
60917;SDS011;46792;38.854;-9.384;2023-05-18T12:44:16;9.90;;;4.70;;
60917;SDS011;46792;38.854;-9.384;2023-05-18T12:46:36;15.13;;;4.13;;
60917;SDS011;46792;38.854;-9.384;2023-05-18T12:48:56;6.90;;;4.35;;
60917;SDS011;46792;38.854;-9.384;2023-05-18T12:51:00;6.00;;;3.60;;
60917;SDS011;46792;38.854;-9.384;2023-05-18T12:53:19;8.75;;;3.72;;
60917;SDS011;46792;38.854;-9.384;2023-05-18T12:55:20;7.45;;;4.43;;
60917;SDS011;46792;38.854;-9.384;2023-05-18T12:59:47;12.77;;;4.28;;
60917;SDS011;46792;38.854;-9.384;2023-05-18T13:02:29;7.78;;;4.47;;
60917;SDS011;46792;38.854;-9.384;2023-05-18T13:04:34;14.98;;;4.30;;
60917;SDS011;46792;38.854;-9.384;2023-05-18T13:06:36;9.60;;;4.40;;
60917;SDS011;46792;38.854;-9.384;2023-05-18T13:11:15;14.98;;;4.20;;
60917;SDS011;46792;38.854;-9.384;2023-05-18T13:13:16;11.48;;;3.63;;
60917;SDS011;46792;38.854;-9.384;2023-05-18T13:15:17;9.65;;;3.72;;
60917;SDS011;46792;38.854;-9.384;2023-05-18T13:17:22;9.98;;;3.75;;
60917;SDS011;46792;38.854;-9.384;2023-05-18T13:19:24;18.15;;;5.18;;
60917;SDS011;46792;38.854;-9.384;2023-05-18T13:21:25;12.13;;;4.38;;
60917;SDS011;46792;38.854;-9.384;2023-05-18T13:23:26;7.82;;;4.15;;
60917;SDS011;46792;38.854;-9.384;2023-05-18T13:25:47;9.43;;;3.80;;
60917;SDS011;46792;38.854;-9.384;2023-05-18T13:27:49;9.95;;;4.10;;
60917;SDS011;46792;38.854;-9.384;2023-05-18T13:29:51;8.80;;;3.38;;
60917;SDS011;46792;38.854;-9.384;2023-05-18T13:32:10;5.50;;;3.50;;
60917;SDS011;46792;38.854;-9.384;2023-05-18T13:34:10;16.70;;;4.10;;
60917;SDS011;46792;38.854;-9.384;2023-05-18T13:36:11;15.65;;;4.22;;
60917;SDS011;46792;38.854;-9.384;2023-05-18T13:38:12;18.55;;;3.75;;
60917;SDS011;46792;38.854;-9.384;2023-05-18T13:40:14;8.98;;;3.95;;
60917;SDS011;46792;38.854;-9.384;2023-05-18T13:42:16;13.32;;;4.35;;